Time;durP1;ratioP1;P1;durP2;ratioP2;P2;SDS_P1;SDS_P2;PMS_P1;PMS_P2;Temp;Humidity;BMP_temperature;BMP_pressure;BME280_temperature;BME280_humidity;BME280_pressure;Samples;Min_cycle;Max_cycle;Signal;HPM_P1;HPM_P2
2020/12/15 00:02:11;;;;;;;9.50;4.47;;;9.20;99.90;;;;;;4739671;30;20058;-77
2020/12/15 00:04:37;;;;;;;9.50;4.00;;;9.20;99.90;;;;;;4766034;30;20036;-77
2020/12/15 00:07:03;;;;;;;11.57;3.85;;;9.10;99.90;;;;;;4765889;30;20115;-77
2020/12/15 00:09:29;;;;;;;6.90;4.57;;;9.00;99.90;;;;;;4750780;30;20047;-76
2020/12/15 00:11:57;;;;;;;9.63;3.53;;;8.90;99.90;;;;;;4769125;30;20036;-77
2020/12/15 00:14:23;;;;;;;9.73;4.03;;;8.90;99.90;;;;;;4769037;30;20040;-77
2020/12/15 00:16:49;;;;;;;9.43;4.35;;;8.80;99.90;;;;;;4768887;30;20111;-77
2020/12/15 00:19:15;;;;;;;9.85;4.32;;;8.80;99.90;;;;;;4769173;30;20054;-77
2020/12/15 00:21:44;;;;;;;8.90;4.07;;;8.80;99.90;;;;;;4768839;30;20044;-77
2020/12/15 00:24:11;;;;;;;8.32;4.53;;;8.80;99.90;;;;;;4768670;30;20130;-78
2020/12/15 00:26:37;;;;;;;8.45;4.45;;;8.80;99.90;;;;;;4768531;30;20028;-77
2020/12/15 00:29:03;;;;;;;15.30;4.68;;;8.80;99.90;;;;;;4768663;30;20044;-77
2020/12/15 00:31:36;;;;;;;9.77;4.88;;;8.90;99.90;;;;;;4769019;30;20416;-77
2020/12/15 00:34:03;;;;;;;10.75;5.25;;;8.80;99.90;;;;;;4768192;30;20027;-77
2020/12/15 00:36:29;;;;;;;9.02;4.28;;;8.80;99.90;;;;;;4752974;30;20032;-78
2020/12/15 00:38:55;;;;;;;9.02;4.40;;;8.80;99.90;;;;;;4752468;30;20040;-78
2020/12/15 00:41:22;;;;;;;13.02;4.65;;;8.80;99.90;;;;;;4768600;30;20046;-77
2020/12/15 00:43:48;;;;;;;11.48;4.72;;;8.80;99.90;;;;;;4768525;30;20028;-78
2020/12/15 00:46:15;;;;;;;8.23;4.55;;;8.80;99.90;;;;;;4768879;30;20035;-77
2020/12/15 00:48:46;;;;;;;9.65;4.55;;;8.80;99.90;;;;;;4739334;30;20043;-78
2020/12/15 00:51:19;;;;;;;11.75;4.22;;;8.80;99.90;;;;;;4778361;30;20115;-78
2020/12/15 00:53:48;;;;;;;10.25;5.57;;;8.80;99.90;;;;;;4760631;30;20039;-78
2020/12/15 00:56:16;;;;;;;9.43;3.85;;;8.80;99.90;;;;;;4768440;30;20020;-76
2020/12/15 00:58:43;;;;;;;10.82;4.35;;;8.80;99.90;;;;;;4752190;30;20036;-77
2020/12/15 01:01:11;;;;;;;8.82;3.70;;;8.70;99.90;;;;;;4752051;30;20047;-77
2020/12/15 01:03:37;;;;;;;12.43;3.63;;;8.80;99.90;;;;;;4751909;30;20040;-78
2020/12/15 01:06:04;;;;;;;9.95;4.18;;;8.80;99.90;;;;;;4751636;30;20142;-77
2020/12/15 01:08:33;;;;;;;16.83;4.78;;;8.80;99.90;;;;;;4756924;30;20493;-77
2020/12/15 01:11:00;;;;;;;10.68;4.25;;;8.80;99.90;;;;;;4769775;30;20039;-78
2020/12/15 01:13:28;;;;;;;8.05;4.13;;;8.90;99.90;;;;;;4769840;30;20079;-78
2020/12/15 01:15:56;;;;;;;15.38;4.32;;;8.90;99.90;;;;;;4768296;30;20502;-78
2020/12/15 01:18:24;;;;;;;7.47;4.00;;;9.00;99.90;;;;;;4751622;30;20040;-77
2020/12/15 01:20:50;;;;;;;12.48;4.50;;;9.10;99.90;;;;;;4751316;30;20089;-77
2020/12/15 01:23:17;;;;;;;10.73;3.47;;;9.10;99.90;;;;;;4751716;30;20040;-77
2020/12/15 01:25:56;;;;;;;6.97;4.15;;;9.10;99.90;;;;;;4751406;30;20452;-77
2020/12/15 01:28:22;;;;;;;9.98;4.47;;;9.10;99.90;;;;;;4743112;30;20119;-77
2020/12/15 01:30:48;;;;;;;9.43;4.10;;;9.00;99.90;;;;;;4734186;30;20040;-77
2020/12/15 01:33:20;;;;;;;10.88;4.13;;;9.00;99.90;;;;;;4749987;30;20462;-76
2020/12/15 01:36:26;;;;;;;12.57;4.28;;;9.00;99.90;;;;;;4742467;30;20065;-77
2020/12/15 01:38:55;;;;;;;8.93;3.92;;;9.00;99.90;;;;;;4733810;30;20036;-77
2020/12/15 01:41:22;;;;;;;11.18;5.15;;;8.90;99.90;;;;;;4751330;30;20055;-78
2020/12/15 01:43:54;;;;;;;12.98;5.00;;;8.80;99.90;;;;;;4751664;30;20036;-78
2020/12/15 01:46:23;;;;;;;11.85;4.22;;;8.90;99.90;;;;;;4737099;30;20078;-77
2020/12/15 01:48:52;;;;;;;9.10;4.55;;;8.80;99.90;;;;;;4767228;30;20035;-78
2020/12/15 01:51:19;;;;;;;12.98;4.70;;;8.80;99.90;;;;;;4767406;30;20487;-77
2020/12/15 01:53:54;;;;;;;8.30;3.55;;;8.80;99.90;;;;;;4751163;30;20129;-78
2020/12/15 01:56:22;;;;;;;13.45;3.83;;;8.90;99.90;;;;;;4751208;30;20097;-77
2020/12/15 01:58:53;;;;;;;7.53;4.00;;;8.90;99.90;;;;;;4750709;30;20051;-78
2020/12/15 02:01:20;;;;;;;5.95;3.25;;;9.00;99.90;;;;;;4767308;30;20436;-77
2020/12/15 02:03:48;;;;;;;7.28;3.35;;;9.10;99.90;;;;;;4751243;30;20118;-77
2020/12/15 02:06:46;;;;;;;13.32;4.00;;;9.10;99.90;;;;;;4765118;30;20047;-77
2020/12/15 02:09:14;;;;;;;8.07;3.53;;;9.20;99.90;;;;;;4766973;30;20503;-78
2020/12/15 02:11:46;;;;;;;9.18;4.50;;;9.20;99.90;;;;;;4751263;30;20399;-78
2020/12/15 02:14:13;;;;;;;8.63;3.40;;;9.20;99.90;;;;;;4751203;30;20067;-76
2020/12/15 02:16:42;;;;;;;8.18;3.60;;;9.30;99.90;;;;;;4751006;30;20035;-77
2020/12/15 02:19:17;;;;;;;7.68;3.58;;;9.30;99.90;;;;;;4750626;30;20048;-77
2020/12/15 02:21:58;;;;;;;14.80;4.05;;;9.40;99.90;;;;;;4750851;30;20075;-78
2020/12/15 02:24:29;;;;;;;8.90;3.33;;;9.50;99.90;;;;;;4737036;30;20046;-77
2020/12/15 02:27:06;;;;;;;11.82;4.10;;;9.50;99.90;;;;;;4750322;30;20063;-77
2020/12/15 02:29:38;;;;;;;8.13;3.13;;;9.60;99.90;;;;;;4750697;30;20067;-77
2020/12/15 02:32:04;;;;;;;9.45;3.38;;;9.70;99.90;;;;;;4735698;30;20071;-78
2020/12/15 02:34:36;;;;;;;12.00;4.00;;;9.70;99.90;;;;;;4747253;30;20083;-78
2020/12/15 02:37:08;;;;;;;14.73;3.92;;;9.80;99.90;;;;;;4748730;30;20070;-77
2020/12/15 02:39:45;;;;;;;10.20;3.78;;;9.80;99.90;;;;;;4750129;30;20047;-78
2020/12/15 02:42:29;;;;;;;12.82;3.88;;;9.80;99.90;;;;;;4750605;30;20047;-78
2020/12/15 02:44:57;;;;;;;9.05;3.85;;;9.80;99.90;;;;;;4766600;30;20035;-77
2020/12/15 02:47:25;;;;;;;7.10;3.30;;;9.80;99.90;;;;;;4750292;30;20531;-77
2020/12/15 02:49:52;;;;;;;6.97;3.30;;;9.80;99.90;;;;;;4750336;30;20074;-77
2020/12/15 02:52:21;;;;;;;8.68;3.53;;;9.80;99.90;;;;;;4766445;30;20036;-77
2020/12/15 02:54:51;;;;;;;6.68;2.78;;;9.80;99.90;;;;;;4750273;30;20067;-77
2020/12/15 02:57:18;;;;;;;6.93;3.70;;;9.80;99.90;;;;;;4750361;30;20038;-77
2020/12/15 02:59:47;;;;;;;10.02;3.50;;;9.80;99.90;;;;;;4732782;30;20392;-77
2020/12/15 03:02:20;;;;;;;9.32;2.63;;;9.90;99.90;;;;;;4756371;30;20036;-78
2020/12/15 03:04:49;;;;;;;9.73;3.42;;;9.90;99.90;;;;;;4762198;30;20074;-78
2020/12/15 03:07:15;;;;;;;6.32;3.28;;;9.90;99.90;;;;;;4760698;30;20081;-78
2020/12/15 03:09:47;;;;;;;9.32;3.58;;;9.90;99.90;;;;;;4765349;30;20042;-78
2020/12/15 03:12:14;;;;;;;8.52;3.42;;;10.00;99.90;;;;;;4750950;30;20482;-78
2020/12/15 03:14:50;;;;;;;9.95;3.40;;;10.00;99.90;;;;;;4745976;30;20044;-78
2020/12/15 03:17:20;;;;;;;9.43;3.05;;;10.10;99.90;;;;;;4747977;30;20032;-78
2020/12/15 03:19:46;;;;;;;12.10;3.45;;;10.00;99.90;;;;;;4750671;30;20118;-78
2020/12/15 03:22:14;;;;;;;8.88;2.63;;;10.00;99.90;;;;;;4750468;30;20486;-78
2020/12/15 03:24:45;;;;;;;12.35;3.40;;;10.00;99.90;;;;;;4766590;30;20032;-77
2020/12/15 03:27:11;;;;;;;8.18;5.00;;;10.00;99.90;;;;;;4750625;30;20032;-77
2020/12/15 03:29:39;;;;;;;12.55;3.25;;;10.00;99.90;;;;;;4750261;30;20391;-78
2020/12/15 03:32:07;;;;;;;14.30;3.58;;;10.00;99.90;;;;;;4750488;30;20495;-78
2020/12/15 03:34:35;;;;;;;8.98;3.63;;;10.00;99.90;;;;;;4750350;30;20047;-77
2020/12/15 03:37:02;;;;;;;11.07;3.58;;;10.10;99.90;;;;;;4750195;30;20127;-77
2020/12/15 03:39:35;;;;;;;8.35;3.92;;;10.10;99.90;;;;;;4750123;30;20637;-77
2020/12/15 03:42:03;;;;;;;8.32;3.08;;;10.10;99.90;;;;;;4750606;30;20035;-78
2020/12/15 03:44:29;;;;;;;11.15;3.95;;;10.10;99.90;;;;;;4767660;30;20501;-77
2020/12/15 03:47:11;;;;;;;5.53;2.67;;;10.10;99.90;;;;;;4754062;30;20444;-77
2020/12/15 03:49:37;;;;;;;7.85;2.97;;;10.10;99.90;;;;;;4753623;30;20032;-77
2020/12/15 03:52:05;;;;;;;11.27;3.25;;;10.00;99.90;;;;;;4739007;30;20564;-78
2020/12/15 03:54:31;;;;;;;9.35;3.95;;;10.00;99.90;;;;;;4770229;30;20047;-78
2020/12/15 03:57:15;;;;;;;9.18;3.25;;;10.10;99.90;;;;;;4769954;30;20121;-77
2020/12/15 04:00:07;;;;;;;8.45;3.20;;;10.10;99.90;;;;;;4753461;30;20051;-77
2020/12/15 04:02:39;;;;;;;8.98;3.65;;;10.00;99.90;;;;;;4769975;30;20048;-79
2020/12/15 04:05:15;;;;;;;7.50;3.25;;;10.00;99.90;;;;;;4753588;30;20522;-77
2020/12/15 04:07:43;;;;;;;5.10;2.80;;;10.00;99.90;;;;;;4753652;30;20040;-78
2020/12/15 04:10:11;;;;;;;7.53;3.28;;;9.90;99.90;;;;;;4753420;30;20109;-78
2020/12/15 04:12:42;;;;;;;11.80;4.68;;;9.90;99.90;;;;;;4753671;30;20392;-77
2020/12/15 04:15:08;;;;;;;9.50;3.95;;;9.90;99.90;;;;;;4753511;30;20535;-78
2020/12/15 04:17:36;;;;;;;9.00;3.17;;;9.90;99.90;;;;;;4753437;30;20085;-78
2020/12/15 04:20:05;;;;;;;8.63;3.00;;;9.90;99.90;;;;;;4753246;30;20056;-78
2020/12/15 04:22:32;;;;;;;9.27;2.67;;;9.90;99.90;;;;;;4752683;30;20043;-78
2020/12/15 04:25:00;;;;;;;7.63;3.40;;;9.90;99.90;;;;;;4748076;30;20048;-78
2020/12/15 04:27:28;;;;;;;7.88;2.97;;;9.90;99.90;;;;;;4721227;30;20043;-78
2020/12/15 04:29:54;;;;;;;7.22;3.47;;;9.90;99.90;;;;;;4750230;30;20048;-78
2020/12/15 04:32:23;;;;;;;8.32;3.20;;;9.90;99.90;;;;;;4761579;30;20050;-78
2020/12/15 04:35:08;;;;;;;5.70;3.05;;;9.90;99.90;;;;;;4753183;30;20040;-78
2020/12/15 04:37:34;;;;;;;9.48;3.45;;;9.90;99.90;;;;;;4752789;30;20100;-77
2020/12/15 04:40:05;;;;;;;6.60;3.22;;;9.90;99.90;;;;;;4752654;30;20078;-78
2020/12/15 04:42:40;;;;;;;6.43;3.53;;;10.00;99.90;;;;;;4768916;30;20760;-77
2020/12/15 04:45:06;;;;;;;6.25;3.17;;;10.00;99.90;;;;;;4752995;30;20123;-78
2020/12/15 04:47:45;;;;;;;6.47;3.03;;;10.00;99.90;;;;;;4753004;30;20040;-77
2020/12/15 04:50:23;;;;;;;9.02;3.10;;;10.00;99.90;;;;;;4752815;30;20032;-78
2020/12/15 04:53:08;;;;;;;5.70;3.35;;;10.00;99.90;;;;;;4752146;30;20036;-77
2020/12/15 04:56:02;;;;;;;;;;;10.00;99.90;;;;;;4763276;30;20050;-78
2020/12/15 04:58:32;;;;;;;9.25;3.58;;;10.00;99.90;;;;;;4738593;30;19918;-78
2020/12/15 05:01:00;;;;;;;11.68;3.88;;;9.90;99.90;;;;;;4768938;30;20036;-78
2020/12/15 05:03:55;;;;;;;6.50;3.83;;;9.80;99.90;;;;;;4768700;30;20031;-77
2020/12/15 05:06:27;;;;;;;7.40;3.50;;;9.70;99.90;;;;;;4768760;30;20060;-78
2020/12/15 05:08:54;;;;;;;10.75;3.45;;;9.50;99.90;;;;;;4752783;30;20388;-78
2020/12/15 05:11:21;;;;;;;11.13;4.10;;;9.40;99.90;;;;;;4752617;30;20047;-78
2020/12/15 05:14:11;;;;;;;12.32;3.53;;;9.30;99.90;;;;;;4763126;30;20054;-77
2020/12/15 05:16:37;;;;;;;11.32;3.28;;;9.30;99.90;;;;;;4752445;30;20127;-78
2020/12/15 05:19:21;;;;;;;5.40;3.00;;;9.20;99.90;;;;;;4752028;30;20088;-77
2020/12/15 05:21:55;;;;;;;11.85;3.90;;;9.10;99.90;;;;;;4749182;30;20060;-78
2020/12/15 05:24:27;;;;;;;12.57;3.08;;;9.00;99.90;;;;;;4748749;30;20123;-77
2020/12/15 05:27:00;;;;;;;9.93;3.42;;;8.90;99.90;;;;;;4764041;30;20561;-79
2020/12/15 05:29:28;;;;;;;9.98;4.25;;;8.90;99.90;;;;;;4749291;30;20043;-78
2020/12/15 05:32:17;;;;;;;7.80;3.50;;;8.80;99.90;;;;;;4747257;30;20051;-78
2020/12/15 05:35:09;;;;;;;10.13;3.85;;;8.80;99.90;;;;;;4749344;30;20047;-77
2020/12/15 05:37:55;;;;;;;8.20;3.50;;;8.80;99.90;;;;;;4750378;30;20109;-78
2020/12/15 05:40:55;;;;;;;7.82;4.00;;;8.80;99.90;;;;;;4749949;30;20044;-77
2020/12/15 05:43:44;;;;;;;9.80;3.70;;;8.80;99.90;;;;;;4748344;30;20032;-77
2020/12/15 05:46:17;;;;;;;8.98;4.35;;;8.80;99.90;;;;;;4749010;30;20036;-78
2020/12/15 05:48:43;;;;;;;9.95;4.05;;;8.80;99.90;;;;;;4749070;30;20135;-78
2020/12/15 05:51:09;;;;;;;8.98;3.80;;;8.80;99.90;;;;;;4750057;30;20297;-79
2020/12/15 05:53:35;;;;;;;12.23;4.78;;;8.80;99.90;;;;;;4749732;30;20032;-79
2020/12/15 05:56:04;;;;;;;12.60;4.45;;;8.80;99.90;;;;;;4748816;30;20040;-77
2020/12/15 05:58:31;;;;;;;10.85;3.85;;;8.80;99.90;;;;;;4750047;30;20040;-79
2020/12/15 06:00:57;;;;;;;12.48;4.88;;;8.80;99.90;;;;;;4749996;30;20041;-79
2020/12/15 06:03:23;;;;;;;20.90;7.22;;;8.80;99.90;;;;;;4749865;30;20028;-78
2020/12/15 06:05:54;;;;;;;21.08;7.85;;;8.80;99.90;;;;;;4749575;30;20042;-80
2020/12/15 06:08:21;;;;;;;16.88;7.32;;;8.80;99.90;;;;;;4749474;30;20029;-77
2020/12/15 06:10:52;;;;;;;15.40;5.20;;;8.90;99.90;;;;;;4749523;30;20035;-77
2020/12/15 06:13:18;;;;;;;10.07;4.68;;;8.90;99.90;;;;;;4749523;30;20032;-78
2020/12/15 06:15:44;;;;;;;12.93;4.85;;;8.90;99.90;;;;;;4749371;30;20454;-77
2020/12/15 06:18:11;;;;;;;9.27;5.10;;;8.80;99.90;;;;;;4749380;30;20111;-79
2020/12/15 06:20:37;;;;;;;16.05;5.40;;;8.80;99.90;;;;;;4749437;30;20178;-78
2020/12/15 06:23:10;;;;;;;11.10;4.93;;;8.80;99.90;;;;;;4767475;30;20955;-79
2020/12/15 06:25:37;;;;;;;11.05;5.38;;;8.80;99.90;;;;;;4765163;30;20043;-78
2020/12/15 06:28:11;;;;;;;10.85;4.70;;;8.80;99.90;;;;;;4766981;30;20562;-78
2020/12/15 06:30:39;;;;;;;11.13;5.45;;;8.90;99.90;;;;;;4766975;30;20036;-78
2020/12/15 06:33:10;;;;;;;12.65;5.55;;;8.90;99.90;;;;;;4767094;30;20106;-78
2020/12/15 06:35:37;;;;;;;11.07;4.93;;;8.90;99.90;;;;;;4766904;30;20024;-80
2020/12/15 06:38:16;;;;;;;12.95;5.43;;;8.90;99.90;;;;;;4766773;30;20027;-77
2020/12/15 06:40:47;;;;;;;10.82;4.15;;;9.00;99.90;;;;;;4750857;30;20047;-79
2020/12/15 06:43:24;;;;;;;13.88;5.32;;;9.00;99.90;;;;;;4766758;30;20506;-77
2020/12/15 06:45:50;;;;;;;9.50;4.28;;;9.10;99.90;;;;;;4766989;30;20424;-78
2020/12/15 06:48:22;;;;;;;11.98;4.57;;;9.10;99.90;;;;;;4750987;30;20031;-78
2020/12/15 06:50:49;;;;;;;10.75;3.72;;;9.10;99.90;;;;;;4767309;30;20128;-77
2020/12/15 06:53:19;;;;;;;14.70;4.82;;;9.20;99.90;;;;;;4767518;30;20089;-77
2020/12/15 06:55:45;;;;;;;11.45;3.92;;;9.30;99.90;;;;;;4766808;30;20032;-78
2020/12/15 06:58:22;;;;;;;11.68;4.40;;;9.40;99.90;;;;;;4766931;30;20118;-80
2020/12/15 07:00:49;;;;;;;7.13;3.67;;;9.50;99.90;;;;;;4764667;30;20503;-78
2020/12/15 07:03:19;;;;;;;10.75;3.75;;;9.60;99.90;;;;;;4766541;30;20028;-77
2020/12/15 07:05:45;;;;;;;10.73;3.70;;;9.70;99.90;;;;;;4767023;30;20035;-80
2020/12/15 07:08:12;;;;;;;10.43;3.85;;;9.70;99.90;;;;;;4766618;30;20035;-80
2020/12/15 07:10:43;;;;;;;9.98;3.83;;;9.70;99.90;;;;;;4766773;30;20483;-79
2020/12/15 07:13:12;;;;;;;12.25;4.57;;;9.80;99.90;;;;;;4766779;30;20368;-79
2020/12/15 07:15:38;;;;;;;8.35;3.78;;;9.80;99.90;;;;;;4766798;30;20321;-80
2020/12/15 07:18:05;;;;;;;13.60;5.35;;;9.90;99.90;;;;;;4766184;30;20036;-79
2020/12/15 07:20:32;;;;;;;11.27;4.68;;;9.90;99.90;;;;;;4769365;30;20050;-80
2020/12/15 07:22:58;;;;;;;7.28;4.00;;;10.00;99.90;;;;;;4770177;30;20051;-78
2020/12/15 07:25:24;;;;;;;9.13;4.70;;;10.00;99.90;;;;;;4770431;30;20038;-80
2020/12/15 07:27:51;;;;;;;9.25;4.40;;;10.10;99.90;;;;;;4770049;30;20042;-79
2020/12/15 07:30:22;;;;;;;14.45;4.05;;;10.20;99.90;;;;;;4770007;30;20074;-78
2020/12/15 07:32:49;;;;;;;11.57;3.83;;;10.20;99.90;;;;;;4770153;30;20028;-79
2020/12/15 07:35:38;;;;;;;8.63;4.32;;;10.30;99.90;;;;;;4775713;30;20468;-78
2020/12/15 07:38:11;;;;;;;11.13;4.28;;;10.40;99.90;;;;;;4777217;30;20036;-80
2020/12/15 07:40:37;;;;;;;9.13;5.03;;;10.40;99.90;;;;;;4772000;30;20050;-78
2020/12/15 07:43:07;;;;;;;12.48;4.10;;;10.50;99.90;;;;;;4770130;30;20036;-79
2020/12/15 07:45:34;;;;;;;11.30;4.70;;;10.60;99.90;;;;;;4770150;30;20032;-78
2020/12/15 07:48:05;;;;;;;10.73;5.10;;;10.70;99.90;;;;;;4769884;30;20047;-78
2020/12/15 07:50:32;;;;;;;11.48;4.30;;;10.80;99.90;;;;;;4769817;30;20027;-78
2020/12/15 07:53:11;;;;;;;9.50;4.80;;;10.80;99.90;;;;;;4769854;30;20411;-78
2020/12/15 07:55:37;;;;;;;7.25;4.43;;;10.90;99.90;;;;;;4769937;30;20027;-79
2020/12/15 07:58:12;;;;;;;8.18;4.57;;;11.00;99.90;;;;;;4769294;30;20032;-78
2020/12/15 08:00:38;;;;;;;9.23;4.78;;;11.00;99.90;;;;;;4771421;30;20040;-80
2020/12/15 08:03:04;;;;;;;10.63;4.43;;;11.10;99.90;;;;;;4769667;30;20115;-78
2020/12/15 08:05:31;;;;;;;10.77;4.95;;;11.20;99.90;;;;;;4768164;30;20093;-78
2020/12/15 08:08:02;;;;;;;9.60;4.88;;;11.30;99.90;;;;;;4741550;30;20035;-79
2020/12/15 08:10:33;;;;;;;10.77;4.15;;;11.30;99.90;;;;;;4768847;30;20028;-79
2020/12/15 08:13:04;;;;;;;12.60;6.32;;;11.40;99.90;;;;;;4767270;30;20633;-78
2020/12/15 08:15:38;;;;;;;12.60;4.82;;;11.40;99.90;;;;;;4774816;30;20514;-78
2020/12/15 08:18:07;;;;;;;8.27;4.00;;;11.50;99.90;;;;;;4786940;30;20043;-79
2020/12/15 08:20:35;;;;;;;6.80;3.90;;;11.60;99.90;;;;;;4751496;30;20044;-78
2020/12/15 08:23:06;;;;;;;8.70;5.28;;;11.60;99.90;;;;;;4768834;30;20051;-78
2020/12/15 08:25:33;;;;;;;11.45;4.20;;;11.70;99.90;;;;;;4768805;30;20050;-78
2020/12/15 08:28:09;;;;;;;20.88;4.78;;;11.70;99.90;;;;;;4768969;30;20028;-78
2020/12/15 08:30:35;;;;;;;6.53;3.80;;;11.80;99.90;;;;;;4751704;30;20040;-78
2020/12/15 08:33:02;;;;;;;8.73;4.97;;;11.90;99.90;;;;;;4768433;30;20388;-78
2020/12/15 08:35:28;;;;;;;13.00;5.72;;;12.00;99.90;;;;;;4769028;30;20501;-78
2020/12/15 08:37:59;;;;;;;11.30;4.70;;;12.00;99.90;;;;;;4771391;30;20027;-78
2020/12/15 08:40:29;;;;;;;9.07;3.85;;;12.20;99.90;;;;;;4779657;30;20073;-78
2020/12/15 08:43:03;;;;;;;10.05;4.47;;;12.20;99.90;;;;;;4775195;30;20059;-78
2020/12/15 08:45:30;;;;;;;11.55;4.43;;;12.30;99.90;;;;;;4778110;30;20039;-79
2020/12/15 08:47:57;;;;;;;10.40;4.85;;;12.40;99.90;;;;;;4786741;30;20043;-78
2020/12/15 08:50:28;;;;;;;8.65;3.97;;;12.50;99.90;;;;;;4770276;30;20046;-78
2020/12/15 08:53:06;;;;;;;11.10;4.30;;;12.60;99.90;;;;;;4768559;30;20036;-78
2020/12/15 08:55:36;;;;;;;6.03;3.88;;;12.70;99.90;;;;;;4767600;30;20027;-79
2020/12/15 08:58:08;;;;;;;6.88;3.47;;;12.90;99.90;;;;;;4771003;30;20046;-78
2020/12/15 09:00:38;;;;;;;5.20;2.72;;;13.00;99.90;;;;;;4776264;30;20135;-78
2020/12/15 09:03:15;;;;;;;4.63;2.55;;;13.20;99.90;;;;;;4768533;30;20043;-78
2020/12/15 09:05:45;;;;;;;7.20;3.60;;;13.30;99.90;;;;;;4776911;30;20131;-78
2020/12/15 09:08:11;;;;;;;9.82;3.70;;;13.50;99.90;;;;;;4770271;30;20036;-78
2020/12/15 09:10:38;;;;;;;4.65;3.35;;;13.60;99.90;;;;;;4786510;30;20114;-78
2020/12/15 09:13:06;;;;;;;9.57;3.15;;;13.60;99.90;;;;;;4779718;30;20050;-77
2020/12/15 09:15:33;;;;;;;3.72;2.35;;;13.70;99.90;;;;;;4768516;30;20035;-82
2020/12/15 09:17:59;;;;;;;3.97;2.22;;;13.80;99.90;;;;;;4769072;30;20411;-78
2020/12/15 09:20:27;;;;;;;5.80;3.38;;;13.80;99.90;;;;;;4768706;30;20123;-78
2020/12/15 09:22:54;;;;;;;6.38;2.67;;;13.90;99.90;;;;;;4761229;30;20721;-80
2020/12/15 09:25:20;;;;;;;4.88;2.50;;;14.00;99.90;;;;;;4767764;30;20499;-79
2020/12/15 09:27:50;;;;;;;4.32;2.17;;;14.00;99.90;;;;;;4760708;30;20036;-79
2020/12/15 09:30:18;;;;;;;4.72;2.40;;;14.10;99.90;;;;;;4782848;30;20031;-79
2020/12/15 09:32:45;;;;;;;5.00;2.92;;;14.20;99.90;;;;;;4784779;30;20038;-80
2020/12/15 09:35:13;;;;;;;4.78;2.45;;;14.30;99.90;;;;;;4768618;30;20089;-80
2020/12/15 09:37:40;;;;;;;5.97;2.70;;;14.40;99.90;;;;;;4751902;30;20452;-80
2020/12/15 09:40:08;;;;;;;7.25;2.60;;;14.50;99.90;;;;;;4751517;30;20134;-80
2020/12/15 09:42:38;;;;;;;3.95;2.38;;;14.60;99.90;;;;;;4767448;30;20036;-78
2020/12/15 09:45:06;;;;;;;5.78;2.60;;;14.70;99.90;;;;;;4767732;30;20101;-80
2020/12/15 09:47:33;;;;;;;5.10;2.70;;;14.80;99.90;;;;;;4767868;30;20093;-78
2020/12/15 09:50:01;;;;;;;4.70;2.47;;;14.90;99.90;;;;;;4767591;30;20500;-83
2020/12/15 09:52:30;;;;;;;6.80;3.35;;;14.90;99.90;;;;;;4739667;30;20112;-80
2020/12/15 09:54:56;;;;;;;4.78;2.85;;;15.10;99.90;;;;;;4767580;30;20036;-79
2020/12/15 09:57:23;;;;;;;7.60;3.40;;;15.30;99.90;;;;;;4760931;30;21060;-80
2020/12/15 09:59:49;;;;;;;4.85;2.40;;;15.40;99.90;;;;;;4758000;30;20040;-81
2020/12/15 10:02:15;;;;;;;5.28;2.65;;;15.50;99.90;;;;;;4751510;30;20511;-82
2020/12/15 10:04:42;;;;;;;4.88;3.00;;;15.60;99.90;;;;;;4736780;30;20085;-82
2020/12/15 10:07:13;;;;;;;4.72;2.55;;;15.60;99.90;;;;;;4751630;30;20454;-82
2020/12/15 10:09:39;;;;;;;7.45;3.30;;;15.60;99.90;;;;;;4736819;30;20043;-82
2020/12/15 10:12:10;;;;;;;5.55;2.53;;;15.70;99.90;;;;;;4736672;30;20099;-82
2020/12/15 10:14:42;;;;;;;4.43;2.58;;;15.70;99.90;;;;;;4752078;30;20039;-82
2020/12/15 10:17:12;;;;;;;6.53;2.95;;;15.80;99.90;;;;;;4751803;30;20042;-82
2020/12/15 10:19:43;;;;;;;7.30;3.35;;;15.80;99.90;;;;;;4751768;30;20116;-82
2020/12/15 10:22:12;;;;;;;4.55;2.75;;;15.90;99.90;;;;;;4767897;30;20086;-82
2020/12/15 10:24:43;;;;;;;4.68;2.40;;;15.90;99.90;;;;;;4751587;30;20067;-81
2020/12/15 10:27:12;;;;;;;5.45;3.33;;;15.70;99.90;;;;;;4751273;30;20035;-81
2020/12/15 10:29:42;;;;;;;5.50;2.72;;;15.50;99.90;;;;;;4767285;30;20032;-81
2020/12/15 10:32:08;;;;;;;5.05;2.92;;;15.50;99.90;;;;;;4751181;30;20035;-81
2020/12/15 10:34:34;;;;;;;4.10;2.92;;;15.60;99.90;;;;;;4751337;30;20032;-81
2020/12/15 10:37:03;;;;;;;3.85;2.75;;;15.70;99.90;;;;;;4766970;30;20112;-81
2020/12/15 10:39:32;;;;;;;6.28;3.50;;;15.50;99.90;;;;;;4767605;30;20085;-81
2020/12/15 10:41:58;;;;;;;6.60;3.60;;;15.40;99.90;;;;;;4736443;30;20042;-81
2020/12/15 10:44:25;;;;;;;8.93;3.10;;;15.20;99.90;;;;;;4766840;30;20092;-81
2020/12/15 10:46:54;;;;;;;5.70;2.67;;;15.10;99.90;;;;;;4736813;30;20395;-81
2020/12/15 10:49:24;;;;;;;9.68;3.35;;;15.50;99.90;;;;;;4766905;30;20039;-81
2020/12/15 10:51:53;;;;;;;6.95;2.97;;;15.70;99.90;;;;;;4750869;30;20063;-81
2020/12/15 10:54:26;;;;;;;7.43;3.28;;;15.30;99.90;;;;;;4750327;30;20030;-81
2020/12/15 10:56:53;;;;;;;6.15;2.85;;;15.00;99.90;;;;;;4766843;30;20445;-81
2020/12/15 10:59:19;;;;;;;7.68;3.08;;;15.00;99.90;;;;;;4750807;30;20119;-81
2020/12/15 11:01:50;;;;;;;7.18;3.05;;;15.30;99.90;;;;;;4751142;30;20035;-81
2020/12/15 11:04:17;;;;;;;5.50;2.42;;;15.60;99.90;;;;;;4736222;30;20507;-82
2020/12/15 11:06:47;;;;;;;6.07;2.45;;;15.70;99.90;;;;;;4751328;30;20039;-81
2020/12/15 11:09:14;;;;;;;12.40;3.35;;;15.30;99.90;;;;;;4736213;30;20039;-81
2020/12/15 11:11:46;;;;;;;4.10;2.28;;;15.10;99.90;;;;;;4750963;30;20038;-82
2020/12/15 11:14:14;;;;;;;4.97;2.75;;;15.30;99.90;;;;;;4766693;30;20032;-82
2020/12/15 11:16:40;;;;;;;3.15;2.42;;;15.30;99.90;;;;;;4736449;30;20032;-81
2020/12/15 11:19:07;;;;;;;6.85;2.78;;;15.30;99.90;;;;;;4750457;30;20114;-81
2020/12/15 11:21:33;;;;;;;6.88;2.88;;;15.30;99.90;;;;;;4750492;30;20071;-81
2020/12/15 11:24:00;;;;;;;9.43;3.35;;;15.60;99.90;;;;;;4735922;30;20043;-81
2020/12/15 11:26:26;;;;;;;6.50;2.83;;;15.80;99.90;;;;;;4736321;30;20156;-82
2020/12/15 11:28:52;;;;;;;4.55;2.58;;;15.50;99.90;;;;;;4750799;30;20070;-81
2020/12/15 11:31:18;;;;;;;5.88;2.88;;;15.40;99.90;;;;;;4750513;30;20036;-81
2020/12/15 11:33:45;;;;;;;6.22;3.50;;;15.70;99.90;;;;;;4767073;30;20032;-82
2020/12/15 11:36:11;;;;;;;6.28;3.00;;;16.00;99.90;;;;;;4750567;30;20530;-81
2020/12/15 11:38:39;;;;;;;4.80;2.33;;;16.20;99.90;;;;;;4750657;30;20169;-81
2020/12/15 11:41:06;;;;;;;7.50;2.90;;;16.00;99.90;;;;;;4766442;30;20043;-82
2020/12/15 11:43:32;;;;;;;4.90;3.35;;;15.50;99.90;;;;;;4766652;30;20024;-81
2020/12/15 11:45:58;;;;;;;4.13;2.30;;;15.40;99.90;;;;;;4750615;30;20400;-81
2020/12/15 11:48:25;;;;;;;6.15;3.35;;;15.60;99.90;;;;;;4766528;30;20052;-81
2020/12/15 11:50:51;;;;;;;3.80;2.53;;;16.00;99.90;;;;;;4735880;30;20032;-81
2020/12/15 11:53:17;;;;;;;4.28;2.83;;;15.90;99.90;;;;;;4750510;30;20050;-81
2020/12/15 11:55:43;;;;;;;4.40;2.20;;;15.70;99.90;;;;;;4735823;30;20484;-81
2020/12/15 11:58:09;;;;;;;3.78;2.17;;;15.30;99.90;;;;;;4766387;30;20043;-81
2020/12/15 12:00:35;;;;;;;5.82;2.90;;;15.60;99.90;;;;;;4750264;30;20044;-82
2020/12/15 12:03:02;;;;;;;5.18;1.92;;;15.80;99.90;;;;;;4750440;30;20124;-81
2020/12/15 12:05:28;;;;;;;5.10;2.63;;;16.00;99.90;;;;;;4736748;30;20032;-82
2020/12/15 12:07:54;;;;;;;5.57;2.88;;;16.30;99.90;;;;;;4769460;30;20031;-82
2020/12/15 12:10:20;;;;;;;5.20;2.63;;;16.40;99.90;;;;;;4769611;30;20446;-81
2020/12/15 12:12:46;;;;;;;9.38;2.40;;;16.10;99.90;;;;;;4753773;30;20039;-81
2020/12/15 12:15:12;;;;;;;3.47;2.30;;;15.70;99.90;;;;;;4753566;30;20097;-81
2020/12/15 12:17:38;;;;;;;7.38;3.72;;;15.30;99.90;;;;;;4753594;30;20038;-82
2020/12/15 12:20:04;;;;;;;4.93;3.28;;;15.60;99.90;;;;;;4753661;30;20130;-81
2020/12/15 12:22:31;;;;;;;7.47;2.63;;;15.80;99.90;;;;;;4769417;30;20055;-82
2020/12/15 12:24:57;;;;;;;8.98;3.28;;;15.40;99.90;;;;;;4753487;30;20398;-81
2020/12/15 12:27:23;;;;;;;8.45;3.20;;;14.90;99.90;;;;;;4769299;30;20031;-81
2020/12/15 12:29:49;;;;;;;4.88;2.33;;;15.10;99.90;;;;;;4738900;30;20130;-81
2020/12/15 12:32:15;;;;;;;6.38;3.10;;;15.60;99.90;;;;;;4753196;30;20039;-82
2020/12/15 12:34:41;;;;;;;11.93;4.07;;;15.90;99.90;;;;;;4769301;30;20115;-81
2020/12/15 12:37:10;;;;;;;6.80;3.50;;;15.60;99.90;;;;;;4768996;30;20052;-81
2020/12/15 12:39:38;;;;;;;6.63;3.50;;;15.30;99.90;;;;;;4769224;30;20453;-81
2020/12/15 12:42:04;;;;;;;4.82;2.60;;;15.30;99.90;;;;;;4738387;30;20383;-81
2020/12/15 12:44:32;;;;;;;5.85;2.72;;;15.70;99.90;;;;;;4753061;30;20040;-81
2020/12/15 12:46:59;;;;;;;8.02;2.60;;;16.10;99.90;;;;;;4738151;30;20432;-81
2020/12/15 12:49:25;;;;;;;6.20;2.35;;;16.40;99.90;;;;;;4753074;30;20042;-81
2020/12/15 12:51:52;;;;;;;5.43;2.72;;;16.30;99.90;;;;;;4753223;30;20071;-81
2020/12/15 12:54:19;;;;;;;8.02;3.55;;;15.90;99.90;;;;;;4752739;30;20096;-81
2020/12/15 12:56:45;;;;;;;4.78;2.47;;;16.10;99.90;;;;;;4752974;30;20216;-82
2020/12/15 12:59:11;;;;;;;5.18;3.05;;;16.20;99.90;;;;;;4752883;30;20123;-81
2020/12/15 13:01:37;;;;;;;6.88;3.03;;;16.00;99.90;;;;;;4753040;30;20459;-81